Search for airport 
image banner adimage banner adimage banner ad
image banner ad

3PA1 - Heart Of Lancaster Rgnl Medical Center

Located in Lititz, United States

ICAO - 3PA1, IATA -

Data provided by Airmate  

General information

Coordinates: N40°7'59" W76°18'39"
Elevation is 419 feet MSL.
 
View others Airports in Pennsylvania

Operational data

Special qualification required
Current time UTC:
Current local time:
Weather at : KLNS - Lancaster ( 2 km )
METAR: KLNS 091553Z 21003KT 10SM -RA BKN055 OVC070 12/02 A3008 RMK AO2 RAB51 SLP188 P0000 T01170022
TAF: KLNS 091537Z 0916/1012 18007KT 5SM -RA BR OVC030 FM100500 35007KT 3SM -RA BR BKN009 OVC018 WS020/23044KT FM101100 34008G15KT P6SM BKN015 OVC025
View NOTAMs / SUP AIP / TFR affecting this airport [VIEW]
Communications frequencies: [VIEW]

Runways:

Airport contact information

Address: Lititz United States

Satellite view of 3PA1